sensor_id;sensor_type;location;lat;lon;timestamp;P1;durP1;ratioP1;P2;durP2;ratioP2
78968;SDS011;77021;51.052;17.034;2024-03-29T00:00:26;2.60;;;1.20;;
78968;SDS011;77021;51.052;17.034;2024-03-29T00:03:32;1.60;;;0.90;;
78968;SDS011;77021;51.052;17.034;2024-03-29T00:06:18;3.30;;;1.30;;
78968;SDS011;77021;51.052;17.034;2024-03-29T00:12:45;3.10;;;1.00;;
78968;SDS011;77021;51.052;17.034;2024-03-29T00:15:32;1.70;;;0.90;;
78968;SDS011;77021;51.052;17.034;2024-03-29T00:18:19;1.90;;;1.20;;
78968;SDS011;77021;51.052;17.034;2024-03-29T00:21:05;2.00;;;0.80;;
78968;SDS011;77021;51.052;17.034;2024-03-29T00:23:51;2.80;;;1.40;;
78968;SDS011;77021;51.052;17.034;2024-03-29T00:26:38;2.60;;;1.10;;
78968;SDS011;77021;51.052;17.034;2024-03-29T00:29:30;1.80;;;1.20;;
78968;SDS011;77021;51.052;17.034;2024-03-29T00:32:16;3.10;;;0.90;;
78968;SDS011;77021;51.052;17.034;2024-03-29T00:35:02;1.60;;;1.10;;
78968;SDS011;77021;51.052;17.034;2024-03-29T00:37:49;0.90;;;0.70;;
78968;SDS011;77021;51.052;17.034;2024-03-29T00:40:35;3.10;;;1.10;;
78968;SDS011;77021;51.052;17.034;2024-03-29T00:43:22;2.30;;;1.20;;
78968;SDS011;77021;51.052;17.034;2024-03-29T00:46:08;3.60;;;1.40;;
78968;SDS011;77021;51.052;17.034;2024-03-29T00:51:58;2.10;;;1.40;;
78968;SDS011;77021;51.052;17.034;2024-03-29T00:54:50;2.30;;;1.20;;
78968;SDS011;77021;51.052;17.034;2024-03-29T00:57:36;2.90;;;1.20;;
78968;SDS011;77021;51.052;17.034;2024-03-29T01:00:22;1.70;;;1.00;;
78968;SDS011;77021;51.052;17.034;2024-03-29T01:03:09;2.10;;;0.90;;
78968;SDS011;77021;51.052;17.034;2024-03-29T01:05:55;2.50;;;1.50;;
78968;SDS011;77021;51.052;17.034;2024-03-29T01:08:41;1.50;;;1.00;;
78968;SDS011;77021;51.052;17.034;2024-03-29T01:11:27;3.00;;;1.60;;
78968;SDS011;77021;51.052;17.034;2024-03-29T01:14:14;2.20;;;1.40;;
78968;SDS011;77021;51.052;17.034;2024-03-29T01:17:01;2.90;;;1.40;;
78968;SDS011;77021;51.052;17.034;2024-03-29T01:19:48;1.80;;;1.20;;
78968;SDS011;77021;51.052;17.034;2024-03-29T01:22:35;1.50;;;1.20;;
78968;SDS011;77021;51.052;17.034;2024-03-29T01:25:21;2.70;;;1.30;;
78968;SDS011;77021;51.052;17.034;2024-03-29T01:28:08;2.70;;;1.30;;
78968;SDS011;77021;51.052;17.034;2024-03-29T01:30:55;2.20;;;1.50;;
78968;SDS011;77021;51.052;17.034;2024-03-29T01:33:41;1.60;;;1.10;;
78968;SDS011;77021;51.052;17.034;2024-03-29T01:36:27;2.40;;;1.10;;
78968;SDS011;77021;51.052;17.034;2024-03-29T01:39:13;1.90;;;1.00;;
78968;SDS011;77021;51.052;17.034;2024-03-29T01:46:23;2.20;;;1.20;;
78968;SDS011;77021;51.052;17.034;2024-03-29T01:49:09;1.70;;;1.10;;
78968;SDS011;77021;51.052;17.034;2024-03-29T01:51:57;2.70;;;1.20;;
78968;SDS011;77021;51.052;17.034;2024-03-29T01:54:43;1.90;;;1.30;;
78968;SDS011;77021;51.052;17.034;2024-03-29T01:57:30;1.60;;;1.30;;
78968;SDS011;77021;51.052;17.034;2024-03-29T02:00:18;3.90;;;1.20;;
78968;SDS011;77021;51.052;17.034;2024-03-29T02:03:05;1.90;;;1.20;;
78968;SDS011;77021;51.052;17.034;2024-03-29T02:05:57;2.00;;;1.50;;
78968;SDS011;77021;51.052;17.034;2024-03-29T02:08:47;1.80;;;1.20;;
78968;SDS011;77021;51.052;17.034;2024-03-29T02:11:39;1.70;;;1.30;;
78968;SDS011;77021;51.052;17.034;2024-03-29T02:14:25;1.30;;;1.10;;
78968;SDS011;77021;51.052;17.034;2024-03-29T02:17:12;2.50;;;1.40;;
78968;SDS011;77021;51.052;17.034;2024-03-29T02:19:58;3.10;;;1.80;;
78968;SDS011;77021;51.052;17.034;2024-03-29T02:22:54;4.60;;;1.50;;
78968;SDS011;77021;51.052;17.034;2024-03-29T02:25:50;2.80;;;1.10;;
78968;SDS011;77021;51.052;17.034;2024-03-29T02:31:53;2.70;;;1.70;;
78968;SDS011;77021;51.052;17.034;2024-03-29T02:34:39;1.50;;;1.40;;
78968;SDS011;77021;51.052;17.034;2024-03-29T02:37:25;2.30;;;1.60;;
78968;SDS011;77021;51.052;17.034;2024-03-29T02:40:11;3.00;;;1.90;;
78968;SDS011;77021;51.052;17.034;2024-03-29T02:42:58;1.80;;;1.20;;
78968;SDS011;77021;51.052;17.034;2024-03-29T02:45:44;2.70;;;1.90;;
78968;SDS011;77021;51.052;17.034;2024-03-29T02:48:30;1.70;;;1.30;;
78968;SDS011;77021;51.052;17.034;2024-03-29T02:51:17;3.00;;;1.10;;
78968;SDS011;77021;51.052;17.034;2024-03-29T02:54:03;2.40;;;1.50;;
78968;SDS011;77021;51.052;17.034;2024-03-29T02:56:49;3.90;;;1.50;;
78968;SDS011;77021;51.052;17.034;2024-03-29T02:59:39;2.40;;;1.30;;
78968;SDS011;77021;51.052;17.034;2024-03-29T03:02:31;2.10;;;1.50;;
78968;SDS011;77021;51.052;17.034;2024-03-29T03:05:18;2.50;;;1.30;;
78968;SDS011;77021;51.052;17.034;2024-03-29T03:08:04;2.50;;;1.40;;
78968;SDS011;77021;51.052;17.034;2024-03-29T03:11:12;2.20;;;1.60;;
78968;SDS011;77021;51.052;17.034;2024-03-29T03:23:02;3.00;;;1.40;;
78968;SDS011;77021;51.052;17.034;2024-03-29T03:25:55;2.20;;;1.50;;
78968;SDS011;77021;51.052;17.034;2024-03-29T03:28:43;2.60;;;1.70;;
78968;SDS011;77021;51.052;17.034;2024-03-29T03:31:29;5.00;;;1.60;;
78968;SDS011;77021;51.052;17.034;2024-03-29T03:34:19;2.50;;;1.60;;
78968;SDS011;77021;51.052;17.034;2024-03-29T03:37:05;4.50;;;1.80;;
78968;SDS011;77021;51.052;17.034;2024-03-29T03:39:51;1.70;;;1.30;;
78968;SDS011;77021;51.052;17.034;2024-03-29T03:42:38;2.40;;;1.30;;
78968;SDS011;77021;51.052;17.034;2024-03-29T03:45:24;2.90;;;1.50;;
78968;SDS011;77021;51.052;17.034;2024-03-29T03:48:10;4.10;;;1.80;;
78968;SDS011;77021;51.052;17.034;2024-03-29T03:50:57;2.30;;;1.20;;
78968;SDS011;77021;51.052;17.034;2024-03-29T03:53:43;2.70;;;1.30;;
78968;SDS011;77021;51.052;17.034;2024-03-29T03:56:30;2.90;;;1.40;;
78968;SDS011;77021;51.052;17.034;2024-03-29T03:59:16;2.40;;;1.20;;
78968;SDS011;77021;51.052;17.034;2024-03-29T04:02:02;2.00;;;1.00;;
78968;SDS011;77021;51.052;17.034;2024-03-29T04:14:11;2.30;;;1.10;;
78968;SDS011;77021;51.052;17.034;2024-03-29T04:16:58;3.30;;;1.00;;
78968;SDS011;77021;51.052;17.034;2024-03-29T04:19:44;2.70;;;0.90;;
78968;SDS011;77021;51.052;17.034;2024-03-29T04:22:30;2.00;;;0.90;;
78968;SDS011;77021;51.052;17.034;2024-03-29T04:25:17;1.80;;;1.00;;
78968;SDS011;77021;51.052;17.034;2024-03-29T04:32:47;2.00;;;1.10;;
78968;SDS011;77021;51.052;17.034;2024-03-29T04:35:33;2.40;;;1.20;;
78968;SDS011;77021;51.052;17.034;2024-03-29T04:38:19;2.00;;;1.20;;
78968;SDS011;77021;51.052;17.034;2024-03-29T04:41:07;3.20;;;1.10;;
78968;SDS011;77021;51.052;17.034;2024-03-29T04:43:53;3.10;;;1.20;;
78968;SDS011;77021;51.052;17.034;2024-03-29T04:46:39;2.70;;;1.10;;
78968;SDS011;77021;51.052;17.034;2024-03-29T04:49:30;1.80;;;0.80;;
78968;SDS011;77021;51.052;17.034;2024-03-29T04:52:22;2.20;;;1.10;;
78968;SDS011;77021;51.052;17.034;2024-03-29T04:55:10;1.60;;;0.80;;
78968;SDS011;77021;51.052;17.034;2024-03-29T04:57:56;1.40;;;1.00;;
78968;SDS011;77021;51.052;17.034;2024-03-29T05:00:43;2.10;;;1.10;;
78968;SDS011;77021;51.052;17.034;2024-03-29T05:03:30;1.90;;;1.10;;
78968;SDS011;77021;51.052;17.034;2024-03-29T05:06:16;2.10;;;0.70;;
78968;SDS011;77021;51.052;17.034;2024-03-29T05:09:02;1.60;;;0.90;;
78968;SDS011;77021;51.052;17.034;2024-03-29T05:11:48;1.60;;;1.00;;
78968;SDS011;77021;51.052;17.034;2024-03-29T05:14:35;2.40;;;1.20;;
78968;SDS011;77021;51.052;17.034;2024-03-29T05:17:21;4.50;;;1.20;;
78968;SDS011;77021;51.052;17.034;2024-03-29T05:20:14;1.80;;;1.00;;
78968;SDS011;77021;51.052;17.034;2024-03-29T05:23:00;2.90;;;1.20;;
78968;SDS011;77021;51.052;17.034;2024-03-29T05:25:46;1.60;;;0.90;;
78968;SDS011;77021;51.052;17.034;2024-03-29T05:28:35;1.30;;;0.80;;
78968;SDS011;77021;51.052;17.034;2024-03-29T05:31:21;2.00;;;0.80;;
78968;SDS011;77021;51.052;17.034;2024-03-29T05:34:07;3.50;;;0.70;;
78968;SDS011;77021;51.052;17.034;2024-03-29T05:40:05;1.60;;;0.60;;
78968;SDS011;77021;51.052;17.034;2024-03-29T05:42:54;1.10;;;0.70;;
78968;SDS011;77021;51.052;17.034;2024-03-29T05:45:40;2.30;;;0.90;;
78968;SDS011;77021;51.052;17.034;2024-03-29T05:48:27;1.80;;;0.60;;
78968;SDS011;77021;51.052;17.034;2024-03-29T05:51:18;1.30;;;0.60;;
78968;SDS011;77021;51.052;17.034;2024-03-29T05:54:04;2.60;;;0.70;;
78968;SDS011;77021;51.052;17.034;2024-03-29T05:56:50;2.30;;;0.50;;
78968;SDS011;77021;51.052;17.034;2024-03-29T05:59:36;3.00;;;0.70;;
78968;SDS011;77021;51.052;17.034;2024-03-29T06:02:26;2.70;;;0.80;;
78968;SDS011;77021;51.052;17.034;2024-03-29T06:05:12;1.80;;;0.60;;
78968;SDS011;77021;51.052;17.034;2024-03-29T06:07:59;3.20;;;0.60;;
78968;SDS011;77021;51.052;17.034;2024-03-29T06:10:45;2.00;;;0.80;;
78968;SDS011;77021;51.052;17.034;2024-03-29T06:13:31;0.60;;;0.40;;
78968;SDS011;77021;51.052;17.034;2024-03-29T06:16:36;1.40;;;0.50;;
78968;SDS011;77021;51.052;17.034;2024-03-29T06:19:41;1.80;;;0.50;;
78968;SDS011;77021;51.052;17.034;2024-03-29T06:22:27;2.80;;;0.60;;
78968;SDS011;77021;51.052;17.034;2024-03-29T06:28:04;1.40;;;0.40;;
78968;SDS011;77021;51.052;17.034;2024-03-29T06:30:51;0.70;;;0.50;;
78968;SDS011;77021;51.052;17.034;2024-03-29T06:33:37;0.50;;;0.30;;
78968;SDS011;77021;51.052;17.034;2024-03-29T06:36:27;0.90;;;0.40;;
78968;SDS011;77021;51.052;17.034;2024-03-29T06:39:13;1.30;;;0.60;;
78968;SDS011;77021;51.052;17.034;2024-03-29T06:42:00;3.20;;;0.70;;
78968;SDS011;77021;51.052;17.034;2024-03-29T06:44:46;0.40;;;0.20;;
78968;SDS011;77021;51.052;17.034;2024-03-29T06:47:32;1.00;;;0.50;;
78968;SDS011;77021;51.052;17.034;2024-03-29T06:50:19;3.30;;;0.50;;
78968;SDS011;77021;51.052;17.034;2024-03-29T06:53:05;2.20;;;0.50;;
78968;SDS011;77021;51.052;17.034;2024-03-29T06:55:52;2.00;;;0.50;;
78968;SDS011;77021;51.052;17.034;2024-03-29T06:58:42;1.70;;;0.40;;
78968;SDS011;77021;51.052;17.034;2024-03-29T07:05:08;0.60;;;0.30;;
78968;SDS011;77021;51.052;17.034;2024-03-29T07:07:57;1.40;;;0.40;;
78968;SDS011;77021;51.052;17.034;2024-03-29T07:10:45;0.80;;;0.20;;
78968;SDS011;77021;51.052;17.034;2024-03-29T07:13:32;2.30;;;0.30;;
78968;SDS011;77021;51.052;17.034;2024-03-29T07:16:19;4.50;;;0.50;;
78968;SDS011;77021;51.052;17.034;2024-03-29T07:19:05;0.70;;;0.20;;
78968;SDS011;77021;51.052;17.034;2024-03-29T07:21:52;1.50;;;0.30;;
78968;SDS011;77021;51.052;17.034;2024-03-29T07:24:39;1.00;;;0.30;;
78968;SDS011;77021;51.052;17.034;2024-03-29T07:27:26;0.50;;;0.30;;
78968;SDS011;77021;51.052;17.034;2024-03-29T07:30:17;4.20;;;0.30;;
78968;SDS011;77021;51.052;17.034;2024-03-29T07:33:06;2.10;;;0.40;;
78968;SDS011;77021;51.052;17.034;2024-03-29T07:35:52;0.70;;;0.30;;
78968;SDS011;77021;51.052;17.034;2024-03-29T07:38:40;0.30;;;0.10;;
78968;SDS011;77021;51.052;17.034;2024-03-29T07:41:27;1.40;;;0.40;;
78968;SDS011;77021;51.052;17.034;2024-03-29T07:44:13;0.30;;;0.10;;
78968;SDS011;77021;51.052;17.034;2024-03-29T07:47:00;2.00;;;0.20;;
78968;SDS011;77021;51.052;17.034;2024-03-29T07:49:46;3.90;;;0.60;;
78968;SDS011;77021;51.052;17.034;2024-03-29T07:52:33;0.40;;;0.20;;
78968;SDS011;77021;51.052;17.034;2024-03-29T07:55:20;1.30;;;0.40;;
78968;SDS011;77021;51.052;17.034;2024-03-29T07:58:06;1.50;;;0.40;;
78968;SDS011;77021;51.052;17.034;2024-03-29T08:00:57;0.80;;;0.20;;
78968;SDS011;77021;51.052;17.034;2024-03-29T08:03:43;1.50;;;0.30;;
78968;SDS011;77021;51.052;17.034;2024-03-29T08:06:36;1.00;;;0.10;;
78968;SDS011;77021;51.052;17.034;2024-03-29T08:09:23;1.50;;;0.30;;
78968;SDS011;77021;51.052;17.034;2024-03-29T08:12:09;2.10;;;0.30;;
78968;SDS011;77021;51.052;17.034;2024-03-29T08:14:57;0.80;;;0.20;;
78968;SDS011;77021;51.052;17.034;2024-03-29T08:17:43;0.30;;;0.20;;
78968;SDS011;77021;51.052;17.034;2024-03-29T08:20:31;2.20;;;0.10;;
78968;SDS011;77021;51.052;17.034;2024-03-29T08:23:18;4.00;;;0.30;;
78968;SDS011;77021;51.052;17.034;2024-03-29T08:26:04;1.30;;;0.30;;
78968;SDS011;77021;51.052;17.034;2024-03-29T08:28:51;1.60;;;0.20;;
78968;SDS011;77021;51.052;17.034;2024-03-29T08:31:37;2.10;;;0.60;;
78968;SDS011;77021;51.052;17.034;2024-03-29T08:34:23;0.90;;;0.20;;
78968;SDS011;77021;51.052;17.034;2024-03-29T08:37:10;0.90;;;0.30;;
78968;SDS011;77021;51.052;17.034;2024-03-29T08:39:56;2.40;;;0.20;;
78968;SDS011;77021;51.052;17.034;2024-03-29T08:42:42;2.10;;;0.30;;
78968;SDS011;77021;51.052;17.034;2024-03-29T08:45:29;2.10;;;0.20;;
78968;SDS011;77021;51.052;17.034;2024-03-29T08:48:15;0.30;;;0.10;;
78968;SDS011;77021;51.052;17.034;2024-03-29T08:51:02;4.60;;;0.40;;
78968;SDS011;77021;51.052;17.034;2024-03-29T08:53:48;0.80;;;0.10;;
78968;SDS011;77021;51.052;17.034;2024-03-29T08:56:34;4.30;;;0.30;;
78968;SDS011;77021;51.052;17.034;2024-03-29T09:02:11;1.40;;;0.40;;
78968;SDS011;77021;51.052;17.034;2024-03-29T09:04:59;5.70;;;0.50;;
78968;SDS011;77021;51.052;17.034;2024-03-29T09:07:45;1.90;;;0.30;;
78968;SDS011;77021;51.052;17.034;2024-03-29T09:10:37;2.00;;;0.50;;
78968;SDS011;77021;51.052;17.034;2024-03-29T09:13:23;1.90;;;0.40;;
78968;SDS011;77021;51.052;17.034;2024-03-29T09:16:10;0.40;;;0.20;;
78968;SDS011;77021;51.052;17.034;2024-03-29T09:19:10;0.80;;;0.20;;
78968;SDS011;77021;51.052;17.034;2024-03-29T09:21:58;0.80;;;0.10;;
78968;SDS011;77021;51.052;17.034;2024-03-29T09:24:44;2.30;;;0.10;;
78968;SDS011;77021;51.052;17.034;2024-03-29T09:27:31;0.50;;;0.20;;
78968;SDS011;77021;51.052;17.034;2024-03-29T09:30:26;0.60;;;0.10;;
78968;SDS011;77021;51.052;17.034;2024-03-29T09:33:12;2.70;;;0.40;;
78968;SDS011;77021;51.052;17.034;2024-03-29T09:35:59;1.50;;;0.20;;
78968;SDS011;77021;51.052;17.034;2024-03-29T09:38:45;0.20;;;0.10;;
78968;SDS011;77021;51.052;17.034;2024-03-29T09:41:31;3.40;;;0.30;;
78968;SDS011;77021;51.052;17.034;2024-03-29T09:44:23;0.90;;;0.30;;
78968;SDS011;77021;51.052;17.034;2024-03-29T09:47:34;1.20;;;0.30;;
78968;SDS011;77021;51.052;17.034;2024-03-29T09:50:26;1.30;;;0.30;;
78968;SDS011;77021;51.052;17.034;2024-03-29T09:53:12;0.60;;;0.20;;
78968;SDS011;77021;51.052;17.034;2024-03-29T09:55:59;1.20;;;0.30;;
78968;SDS011;77021;51.052;17.034;2024-03-29T09:58:46;0.50;;;0.10;;
78968;SDS011;77021;51.052;17.034;2024-03-29T10:01:32;2.00;;;0.40;;
78968;SDS011;77021;51.052;17.034;2024-03-29T10:04:26;0.30;;;0.20;;
78968;SDS011;77021;51.052;17.034;2024-03-29T10:07:14;2.00;;;0.20;;
78968;SDS011;77021;51.052;17.034;2024-03-29T10:10:01;1.00;;;0.30;;
78968;SDS011;77021;51.052;17.034;2024-03-29T10:12:49;0.40;;;0.10;;
78968;SDS011;77021;51.052;17.034;2024-03-29T10:15:35;2.00;;;0.20;;
78968;SDS011;77021;51.052;17.034;2024-03-29T10:18:28;1.80;;;0.30;;
78968;SDS011;77021;51.052;17.034;2024-03-29T10:21:17;1.30;;;0.20;;
78968;SDS011;77021;51.052;17.034;2024-03-29T10:24:12;1.30;;;0.20;;
78968;SDS011;77021;51.052;17.034;2024-03-29T10:27:00;1.30;;;0.10;;
78968;SDS011;77021;51.052;17.034;2024-03-29T10:29:46;0.50;;;0.10;;
78968;SDS011;77021;51.052;17.034;2024-03-29T10:32:39;1.30;;;0.20;;
78968;SDS011;77021;51.052;17.034;2024-03-29T10:35:26;2.30;;;0.30;;
78968;SDS011;77021;51.052;17.034;2024-03-29T10:38:25;1.20;;;0.10;;
78968;SDS011;77021;51.052;17.034;2024-03-29T10:41:14;1.80;;;0.10;;
78968;SDS011;77021;51.052;17.034;2024-03-29T10:44:03;3.30;;;0.40;;
78968;SDS011;77021;51.052;17.034;2024-03-29T10:46:59;1.80;;;0.20;;
78968;SDS011;77021;51.052;17.034;2024-03-29T10:49:50;2.10;;;0.50;;
78968;SDS011;77021;51.052;17.034;2024-03-29T10:52:40;1.50;;;0.10;;
78968;SDS011;77021;51.052;17.034;2024-03-29T10:55:26;5.10;;;0.30;;
78968;SDS011;77021;51.052;17.034;2024-03-29T10:58:21;2.50;;;0.20;;
78968;SDS011;77021;51.052;17.034;2024-03-29T11:01:11;0.40;;;0.10;;
78968;SDS011;77021;51.052;17.034;2024-03-29T11:04:07;0.30;;;0.20;;
78968;SDS011;77021;51.052;17.034;2024-03-29T11:07:10;0.90;;;0.30;;
78968;SDS011;77021;51.052;17.034;2024-03-29T11:10:01;0.80;;;0.20;;
78968;SDS011;77021;51.052;17.034;2024-03-29T11:15:49;0.50;;;0.10;;
78968;SDS011;77021;51.052;17.034;2024-03-29T11:18:36;0.60;;;0.20;;
78968;SDS011;77021;51.052;17.034;2024-03-29T11:21:31;1.00;;;0.20;;
78968;SDS011;77021;51.052;17.034;2024-03-29T11:24:21;0.80;;;0.20;;
78968;SDS011;77021;51.052;17.034;2024-03-29T11:27:08;0.70;;;0.30;;
78968;SDS011;77021;51.052;17.034;2024-03-29T11:29:56;2.40;;;0.30;;
78968;SDS011;77021;51.052;17.034;2024-03-29T11:32:42;0.30;;;0.20;;
78968;SDS011;77021;51.052;17.034;2024-03-29T11:35:47;0.40;;;0.20;;
78968;SDS011;77021;51.052;17.034;2024-03-29T11:38:34;1.10;;;0.20;;
78968;SDS011;77021;51.052;17.034;2024-03-29T11:41:22;4.20;;;0.40;;
78968;SDS011;77021;51.052;17.034;2024-03-29T11:44:09;0.30;;;0.00;;
78968;SDS011;77021;51.052;17.034;2024-03-29T11:46:58;0.70;;;0.40;;
78968;SDS011;77021;51.052;17.034;2024-03-29T11:52:41;0.90;;;0.50;;
78968;SDS011;77021;51.052;17.034;2024-03-29T11:55:29;2.90;;;0.10;;
78968;SDS011;77021;51.052;17.034;2024-03-29T11:58:15;1.80;;;0.20;;
78968;SDS011;77021;51.052;17.034;2024-03-29T12:01:02;1.60;;;0.30;;
78968;SDS011;77021;51.052;17.034;2024-03-29T12:03:48;0.20;;;0.10;;
78968;SDS011;77021;51.052;17.034;2024-03-29T12:06:36;1.30;;;0.30;;
78968;SDS011;77021;51.052;17.034;2024-03-29T12:09:22;0.50;;;0.20;;
78968;SDS011;77021;51.052;17.034;2024-03-29T12:12:09;1.40;;;0.10;;
78968;SDS011;77021;51.052;17.034;2024-03-29T12:14:58;0.30;;;0.00;;
78968;SDS011;77021;51.052;17.034;2024-03-29T12:17:52;0.20;;;0.00;;
78968;SDS011;77021;51.052;17.034;2024-03-29T12:20:50;0.80;;;0.10;;
78968;SDS011;77021;51.052;17.034;2024-03-29T12:23:37;1.70;;;0.70;;
78968;SDS011;77021;51.052;17.034;2024-03-29T12:26:24;2.80;;;0.20;;
78968;SDS011;77021;51.052;17.034;2024-03-29T12:29:13;0.50;;;0.10;;
78968;SDS011;77021;51.052;17.034;2024-03-29T12:32:00;1.00;;;0.30;;
78968;SDS011;77021;51.052;17.034;2024-03-29T12:34:47;0.30;;;0.10;;
78968;SDS011;77021;51.052;17.034;2024-03-29T12:37:33;1.40;;;0.20;;
78968;SDS011;77021;51.052;17.034;2024-03-29T12:40:19;0.30;;;0.10;;
78968;SDS011;77021;51.052;17.034;2024-03-29T12:43:19;0.90;;;0.20;;
78968;SDS011;77021;51.052;17.034;2024-03-29T12:46:08;1.00;;;0.30;;
78968;SDS011;77021;51.052;17.034;2024-03-29T12:49:00;0.50;;;0.20;;
78968;SDS011;77021;51.052;17.034;2024-03-29T12:51:46;0.40;;;0.10;;
78968;SDS011;77021;51.052;17.034;2024-03-29T12:54:40;3.90;;;0.30;;
78968;SDS011;77021;51.052;17.034;2024-03-29T12:57:27;1.30;;;0.10;;
78968;SDS011;77021;51.052;17.034;2024-03-29T13:00:15;2.20;;;0.20;;
78968;SDS011;77021;51.052;17.034;2024-03-29T13:03:02;0.10;;;0.00;;
78968;SDS011;77021;51.052;17.034;2024-03-29T13:05:49;1.80;;;0.30;;
78968;SDS011;77021;51.052;17.034;2024-03-29T13:08:37;0.70;;;0.10;;
78968;SDS011;77021;51.052;17.034;2024-03-29T13:11:23;1.60;;;0.30;;
78968;SDS011;77021;51.052;17.034;2024-03-29T13:14:13;1.90;;;0.20;;
78968;SDS011;77021;51.052;17.034;2024-03-29T13:16:59;1.50;;;0.20;;
78968;SDS011;77021;51.052;17.034;2024-03-29T13:19:46;1.40;;;0.20;;
78968;SDS011;77021;51.052;17.034;2024-03-29T13:22:32;0.50;;;0.30;;
78968;SDS011;77021;51.052;17.034;2024-03-29T13:25:19;0.90;;;0.30;;
78968;SDS011;77021;51.052;17.034;2024-03-29T13:28:09;0.60;;;0.20;;
78968;SDS011;77021;51.052;17.034;2024-03-29T13:30:59;1.30;;;0.50;;
78968;SDS011;77021;51.052;17.034;2024-03-29T13:33:45;2.30;;;0.30;;
78968;SDS011;77021;51.052;17.034;2024-03-29T13:36:31;1.70;;;0.30;;
78968;SDS011;77021;51.052;17.034;2024-03-29T13:39:17;0.30;;;0.20;;
78968;SDS011;77021;51.052;17.034;2024-03-29T13:42:03;0.40;;;0.20;;
78968;SDS011;77021;51.052;17.034;2024-03-29T13:44:51;0.90;;;0.20;;
78968;SDS011;77021;51.052;17.034;2024-03-29T13:47:42;0.40;;;0.20;;
78968;SDS011;77021;51.052;17.034;2024-03-29T13:50:33;1.20;;;0.30;;
78968;SDS011;77021;51.052;17.034;2024-03-29T13:53:19;1.70;;;0.30;;
78968;SDS011;77021;51.052;17.034;2024-03-29T13:56:05;0.40;;;0.20;;
78968;SDS011;77021;51.052;17.034;2024-03-29T13:58:52;1.10;;;0.30;;
78968;SDS011;77021;51.052;17.034;2024-03-29T14:01:38;0.50;;;0.20;;
78968;SDS011;77021;51.052;17.034;2024-03-29T14:04:24;1.90;;;0.50;;
78968;SDS011;77021;51.052;17.034;2024-03-29T14:07:10;1.20;;;0.10;;
78968;SDS011;77021;51.052;17.034;2024-03-29T14:12:52;0.50;;;0.30;;
78968;SDS011;77021;51.052;17.034;2024-03-29T14:15:41;2.00;;;0.50;;
78968;SDS011;77021;51.052;17.034;2024-03-29T14:18:27;1.40;;;0.40;;
78968;SDS011;77021;51.052;17.034;2024-03-29T14:21:16;1.20;;;0.20;;
78968;SDS011;77021;51.052;17.034;2024-03-29T14:24:02;1.10;;;0.30;;
78968;SDS011;77021;51.052;17.034;2024-03-29T14:26:50;0.80;;;0.30;;
78968;SDS011;77021;51.052;17.034;2024-03-29T14:29:38;0.90;;;0.20;;
78968;SDS011;77021;51.052;17.034;2024-03-29T14:32:24;1.10;;;0.20;;
78968;SDS011;77021;51.052;17.034;2024-03-29T14:35:13;1.10;;;0.30;;
78968;SDS011;77021;51.052;17.034;2024-03-29T14:38:02;1.40;;;0.30;;
78968;SDS011;77021;51.052;17.034;2024-03-29T14:40:50;1.90;;;0.40;;
78968;SDS011;77021;51.052;17.034;2024-03-29T14:43:36;3.40;;;0.40;;
78968;SDS011;77021;51.052;17.034;2024-03-29T15:10:39;1.40;;;0.30;;
78968;SDS011;77021;51.052;17.034;2024-03-29T15:13:25;1.40;;;0.30;;
78968;SDS011;77021;51.052;17.034;2024-03-29T15:16:13;1.00;;;0.20;;
78968;SDS011;77021;51.052;17.034;2024-03-29T15:19:00;2.30;;;0.20;;
78968;SDS011;77021;51.052;17.034;2024-03-29T15:21:46;0.90;;;0.20;;
78968;SDS011;77021;51.052;17.034;2024-03-29T15:24:35;0.70;;;0.30;;
78968;SDS011;77021;51.052;17.034;2024-03-29T15:27:23;1.00;;;0.40;;
78968;SDS011;77021;51.052;17.034;2024-03-29T15:30:35;1.20;;;0.30;;
78968;SDS011;77021;51.052;17.034;2024-03-29T15:33:28;1.20;;;0.40;;
78968;SDS011;77021;51.052;17.034;2024-03-29T15:36:14;0.90;;;0.30;;
78968;SDS011;77021;51.052;17.034;2024-03-29T15:39:02;0.90;;;0.40;;
78968;SDS011;77021;51.052;17.034;2024-03-29T15:44:40;1.90;;;0.30;;
78968;SDS011;77021;51.052;17.034;2024-03-29T15:47:27;1.30;;;0.30;;
78968;SDS011;77021;51.052;17.034;2024-03-29T15:50:13;3.30;;;0.50;;
78968;SDS011;77021;51.052;17.034;2024-03-29T15:53:00;1.70;;;0.30;;
78968;SDS011;77021;51.052;17.034;2024-03-29T15:55:46;2.10;;;0.50;;
78968;SDS011;77021;51.052;17.034;2024-03-29T15:58:33;1.50;;;0.50;;
78968;SDS011;77021;51.052;17.034;2024-03-29T16:01:20;1.20;;;0.50;;
78968;SDS011;77021;51.052;17.034;2024-03-29T16:04:06;0.90;;;0.30;;
78968;SDS011;77021;51.052;17.034;2024-03-29T16:06:52;2.50;;;0.70;;
78968;SDS011;77021;51.052;17.034;2024-03-29T16:09:38;2.80;;;0.50;;
78968;SDS011;77021;51.052;17.034;2024-03-29T16:12:25;2.60;;;0.90;;
78968;SDS011;77021;51.052;17.034;2024-03-29T16:15:11;1.00;;;0.40;;
78968;SDS011;77021;51.052;17.034;2024-03-29T16:17:57;1.30;;;0.60;;
78968;SDS011;77021;51.052;17.034;2024-03-29T16:20:44;2.40;;;0.40;;
78968;SDS011;77021;51.052;17.034;2024-03-29T16:23:31;1.40;;;0.50;;
78968;SDS011;77021;51.052;17.034;2024-03-29T16:26:20;2.30;;;0.60;;
78968;SDS011;77021;51.052;17.034;2024-03-29T16:29:06;1.00;;;0.40;;
78968;SDS011;77021;51.052;17.034;2024-03-29T16:31:56;2.60;;;0.50;;
78968;SDS011;77021;51.052;17.034;2024-03-29T16:34:42;0.70;;;0.40;;
78968;SDS011;77021;51.052;17.034;2024-03-29T16:37:28;1.60;;;0.70;;
78968;SDS011;77021;51.052;17.034;2024-03-29T16:40:15;2.40;;;0.60;;
78968;SDS011;77021;51.052;17.034;2024-03-29T16:43:01;3.60;;;0.60;;
78968;SDS011;77021;51.052;17.034;2024-03-29T16:45:51;2.20;;;0.70;;
78968;SDS011;77021;51.052;17.034;2024-03-29T16:48:37;2.10;;;0.70;;
78968;SDS011;77021;51.052;17.034;2024-03-29T16:51:23;2.30;;;0.90;;
78968;SDS011;77021;51.052;17.034;2024-03-29T16:54:09;2.00;;;0.60;;
78968;SDS011;77021;51.052;17.034;2024-03-29T16:56:56;3.50;;;0.80;;
78968;SDS011;77021;51.052;17.034;2024-03-29T16:59:42;4.50;;;0.80;;
78968;SDS011;77021;51.052;17.034;2024-03-29T17:02:30;1.70;;;0.60;;
78968;SDS011;77021;51.052;17.034;2024-03-29T17:05:16;2.80;;;1.00;;
78968;SDS011;77021;51.052;17.034;2024-03-29T17:08:03;2.90;;;0.70;;
78968;SDS011;77021;51.052;17.034;2024-03-29T17:10:50;3.10;;;1.00;;
78968;SDS011;77021;51.052;17.034;2024-03-29T17:13:37;1.50;;;0.60;;
78968;SDS011;77021;51.052;17.034;2024-03-29T17:16:23;2.80;;;0.70;;
78968;SDS011;77021;51.052;17.034;2024-03-29T17:19:10;5.10;;;0.70;;
78968;SDS011;77021;51.052;17.034;2024-03-29T17:21:56;3.80;;;1.20;;
78968;SDS011;77021;51.052;17.034;2024-03-29T17:24:42;4.20;;;1.00;;
78968;SDS011;77021;51.052;17.034;2024-03-29T17:27:34;3.60;;;1.00;;
78968;SDS011;77021;51.052;17.034;2024-03-29T17:30:23;5.70;;;1.40;;
78968;SDS011;77021;51.052;17.034;2024-03-29T17:33:09;3.60;;;1.00;;
78968;SDS011;77021;51.052;17.034;2024-03-29T17:35:55;5.70;;;1.00;;
78968;SDS011;77021;51.052;17.034;2024-03-29T17:38:42;4.80;;;1.60;;
78968;SDS011;77021;51.052;17.034;2024-03-29T17:41:28;5.70;;;1.50;;
78968;SDS011;77021;51.052;17.034;2024-03-29T17:44:15;6.50;;;1.50;;
78968;SDS011;77021;51.052;17.034;2024-03-29T17:47:02;4.10;;;1.50;;
78968;SDS011;77021;51.052;17.034;2024-03-29T17:49:49;5.90;;;2.60;;
78968;SDS011;77021;51.052;17.034;2024-03-29T17:52:35;4.40;;;1.90;;
78968;SDS011;77021;51.052;17.034;2024-03-29T17:55:23;5.20;;;1.40;;
78968;SDS011;77021;51.052;17.034;2024-03-29T17:58:09;2.70;;;1.30;;
78968;SDS011;77021;51.052;17.034;2024-03-29T18:00:55;4.70;;;1.50;;